Time;durP1;ratioP1;P1;durP2;ratioP2;P2;SDS_P1;SDS_P2;PMS_P1;PMS_P2;Temp;Humidity;BMP_temperature;BMP_pressure;BME280_temperature;BME280_humidity;BME280_pressure;Samples;Min_cycle;Max_cycle;Signal;HPM_P1;HPM_P2
2023/10/20 00:03:41;;;;;;;31.08;20.20;;;;;;;11.49;100.00;97852.34;10120246;29;20052;-75
2023/10/20 00:08:45;;;;;;;32.15;20.42;;;;;;;11.42;100.00;97867.59;10123175;29;20083;-76
2023/10/20 00:13:47;;;;;;;31.23;19.67;;;;;;;11.44;100.00;97857.47;10114412;28;20565;-76
2023/10/20 00:18:52;;;;;;;32.63;20.70;;;;;;;11.48;100.00;97851.50;10131079;29;20163;-76
2023/10/20 00:23:54;;;;;;;30.60;20.35;;;;;;;11.46;100.00;97850.88;10122100;29;20058;-76
2023/10/20 00:28:57;;;;;;;34.72;21.05;;;;;;;11.41;100.00;97847.09;10121984;29;20052;-76
2023/10/20 00:34:02;;;;;;;37.00;22.10;;;;;;;11.39;100.00;97849.97;10111286;29;20043;-75
2023/10/20 00:39:06;;;;;;;32.90;21.45;;;;;;;11.38;100.00;97845.63;10113606;29;20066;-76
2023/10/20 00:44:09;;;;;;;36.85;21.25;;;;;;;11.40;100.00;97840.06;10092879;29;20063;-76
2023/10/20 00:49:15;;;;;;;35.33;20.23;;;;;;;11.36;100.00;97823.50;10115854;29;20045;-76
2023/10/20 00:54:20;;;;;;;34.05;22.48;;;;;;;11.30;100.00;97816.19;10111004;29;20084;-76
2023/10/20 00:59:23;;;;;;;35.20;22.10;;;;;;;11.24;100.00;97819.63;10099561;29;20059;-77
2023/10/20 01:04:28;;;;;;;36.47;23.30;;;;;;;11.11;100.00;97814.09;10088135;29;20055;-76
2023/10/20 01:09:31;;;;;;;39.85;24.23;;;;;;;11.01;100.00;97822.47;10109529;29;20088;-77
2023/10/20 01:14:35;;;;;;;37.35;21.65;;;;;;;10.95;100.00;97793.69;10107209;29;20048;-77
2023/10/20 01:19:40;;;;;;;39.03;23.80;;;;;;;10.81;100.00;97784.66;10111700;29;20063;-77
2023/10/20 01:24:45;;;;;;;41.75;24.48;;;;;;;10.77;100.00;97784.16;10091653;29;20060;-76
2023/10/20 01:29:48;;;;;;;42.17;24.02;;;;;;;10.72;100.00;97785.75;10094737;29;20377;-76
2023/10/20 01:34:51;;;;;;;41.85;24.08;;;;;;;10.75;100.00;97772.81;10114978;29;20049;-76
2023/10/20 01:39:55;;;;;;;41.10;24.13;;;;;;;10.74;100.00;97771.13;10107368;29;20047;-75
2023/10/20 01:44:58;;;;;;;35.42;22.27;;;;;;;10.78;100.00;97759.00;10098081;29;20049;-75
2023/10/20 01:50:01;;;;;;;41.63;24.13;;;;;;;10.79;100.00;97735.66;10125005;29;20059;-76
2023/10/20 01:55:06;;;;;;;42.33;23.05;;;;;;;10.77;100.00;97725.09;10112565;29;20548;-76
2023/10/20 02:00:13;;;;;;;37.20;22.45;;;;;;;10.71;100.00;97731.25;10127271;29;20059;-76
2023/10/20 02:05:17;;;;;;;41.53;22.15;;;;;;;10.67;100.00;97737.16;10119644;29;20055;-76
2023/10/20 02:10:22;;;;;;;38.17;22.67;;;;;;;10.61;100.00;97731.56;10106283;29;20202;-76
2023/10/20 02:15:25;;;;;;;36.78;23.33;;;;;;;10.57;100.00;97724.88;10104207;29;20056;-76
2023/10/20 02:20:28;;;;;;;42.33;22.73;;;;;;;10.41;100.00;97717.06;10110651;29;20056;-76
2023/10/20 02:25:32;;;;;;;38.55;23.10;;;;;;;10.43;100.00;97696.25;10109963;29;20182;-76
2023/10/20 02:30:35;;;;;;;40.75;21.65;;;;;;;10.33;100.00;97696.53;10091590;29;20507;-76
2023/10/20 02:35:41;;;;;;;35.95;20.90;;;;;;;10.35;100.00;97685.63;10097669;29;20176;-76
2023/10/20 02:40:51;;;;;;;36.75;21.88;;;;;;;10.25;100.00;97696.63;10107969;29;20064;-77
2023/10/20 02:45:55;;;;;;;43.35;23.25;;;;;;;10.22;100.00;97677.41;10116946;29;20146;-77
2023/10/20 02:50:58;;;;;;;39.97;22.52;;;;;;;10.20;100.00;97680.28;10089271;29;20614;-77
2023/10/20 02:56:02;;;;;;;41.38;22.33;;;;;;;10.16;100.00;97679.81;10104844;29;20048;-76
2023/10/20 03:01:06;;;;;;;43.55;22.35;;;;;;;10.13;100.00;97661.44;10094546;29;21218;-77
2023/10/20 03:06:10;;;;;;;44.17;24.02;;;;;;;10.05;100.00;97648.13;10098901;29;20074;-77
2023/10/20 03:11:15;;;;;;;43.85;23.13;;;;;;;10.02;100.00;97645.81;10106777;29;20507;-76
2023/10/20 03:16:18;;;;;;;44.35;23.73;;;;;;;10.00;100.00;97644.34;10118633;29;20056;-77
2023/10/20 03:21:21;;;;;;;43.75;24.00;;;;;;;9.97;100.00;97632.13;10128006;29;20274;-77
2023/10/20 03:26:25;;;;;;;54.28;24.55;;;;;;;9.83;100.00;97622.25;10093768;29;20043;-77
2023/10/20 03:31:28;;;;;;;44.83;22.30;;;;;;;9.87;100.00;97616.38;10116048;29;21611;-77
2023/10/20 03:36:31;;;;;;;42.92;22.73;;;;;;;9.88;100.00;97623.38;10087567;29;20606;-77
2023/10/20 03:41:36;;;;;;;42.45;22.35;;;;;;;9.84;100.00;97614.00;10112753;29;20577;-77
2023/10/20 03:46:48;;;;;;;40.28;22.23;;;;;;;9.72;100.00;97628.91;10100652;29;20537;-77
2023/10/20 03:51:51;;;;;;;35.20;21.07;;;;;;;9.71;100.00;97587.88;10111980;29;20048;-77
2023/10/20 03:56:57;;;;;;;36.63;22.65;;;;;;;9.61;100.00;97573.09;10110397;29;20052;-77
2023/10/20 04:02:01;;;;;;;36.08;20.60;;;;;;;9.49;100.00;97565.53;10094472;29;20142;-77
2023/10/20 04:07:04;;;;;;;37.15;21.25;;;;;;;9.49;100.00;97568.22;10108980;29;20056;-77
2023/10/20 04:12:08;;;;;;;40.55;21.80;;;;;;;9.40;100.00;97563.13;10102799;29;20052;-77
2023/10/20 04:17:11;;;;;;;40.65;22.48;;;;;;;9.29;100.00;97543.00;10103112;29;20893;-77
2023/10/20 04:22:16;;;;;;;42.40;22.20;;;;;;;9.30;100.00;97528.59;10102115;29;20048;-77
2023/10/20 04:27:28;;;;;;;42.05;22.02;;;;;;;9.25;100.00;97539.03;10106720;29;20060;-77
2023/10/20 04:53:55;;;;;;;34.05;19.20;;;;;;;8.91;100.00;97527.00;10110441;29;20087;-77
2023/10/20 04:59:05;;;;;;;34.95;20.70;;;;;;;8.90;100.00;97500.44;10100328;29;20044;-77
2023/10/20 05:04:14;;;;;;;36.63;19.80;;;;;;;8.81;100.00;97487.13;10103582;29;20052;-77
2023/10/20 05:09:17;;;;;;;28.13;18.25;;;;;;;8.90;100.00;97482.53;10126987;29;20061;-77
2023/10/20 05:14:22;;;;;;;30.75;17.95;;;;;;;8.90;100.00;97487.03;10128269;29;20044;-77
2023/10/20 05:19:27;;;;;;;26.98;17.65;;;;;;;8.94;100.00;97477.63;10128868;29;20056;-77
2023/10/20 05:24:31;;;;;;;29.08;16.52;;;;;;;8.92;100.00;97474.31;10130506;29;20504;-77
2023/10/20 05:29:35;;;;;;;27.13;16.50;;;;;;;8.94;100.00;97483.84;10126032;29;21142;-76
2023/10/20 05:34:38;;;;;;;25.02;16.50;;;;;;;8.89;100.00;97469.34;10125124;29;20053;-76
2023/10/20 05:39:41;;;;;;;25.05;15.35;;;;;;;8.72;100.00;97450.78;10119074;29;20058;-77
2023/10/20 05:44:58;;;;;;;19.65;13.57;;;;;;;8.59;100.00;97431.84;10117895;29;20044;-75
2023/10/20 05:50:05;;;;;;;24.40;14.32;;;;;;;8.64;100.00;97424.13;10117758;29;20049;-76
2023/10/20 05:55:09;;;;;;;20.70;13.45;;;;;;;8.56;100.00;97425.03;10121704;29;20048;-75
2023/10/20 06:00:15;;;;;;;24.02;14.07;;;;;;;8.62;100.00;97426.13;10121750;29;20057;-75
2023/10/20 06:05:18;;;;;;;20.95;12.98;;;;;;;8.56;100.00;97411.66;10107304;29;20059;-76
2023/10/20 06:10:23;;;;;;;23.67;12.63;;;;;;;8.60;100.00;97388.03;10106925;29;20087;-76
2023/10/20 06:15:27;;;;;;;18.58;12.40;;;;;;;8.55;100.00;97391.25;10113097;29;20063;-76
2023/10/20 06:20:30;;;;;;;18.25;11.18;;;;;;;8.57;100.00;97391.91;10122869;29;21225;-75
2023/10/20 06:25:33;;;;;;;17.65;10.90;;;;;;;8.54;100.00;97391.44;10129946;29;20084;-75
2023/10/20 06:30:43;;;;;;;14.75;10.43;;;;;;;8.50;100.00;97358.91;10127054;29;20060;-75
2023/10/20 06:35:59;;;;;;;17.42;9.65;;;;;;;8.37;100.00;97361.34;10112315;29;20052;-75
2023/10/20 06:41:03;;;;;;;14.10;9.65;;;;;;;8.38;100.00;97346.94;10127963;29;20104;-77
2023/10/20 06:46:08;;;;;;;14.10;8.90;;;;;;;8.32;100.00;97356.53;10120954;29;20063;-75
2023/10/20 06:51:11;;;;;;;11.02;7.75;;;;;;;8.24;100.00;97379.88;10124124;29;20196;-76
2023/10/20 06:56:13;;;;;;;10.98;7.72;;;;;;;8.14;100.00;97367.56;10117431;29;20048;-76
2023/10/20 07:01:23;;;;;;;7.47;6.68;;;;;;;8.03;100.00;97369.88;10097494;29;20055;-76
2023/10/20 07:06:26;;;;;;;7.75;6.45;;;;;;;8.19;100.00;97361.69;10117077;29;21316;-76
2023/10/20 07:11:29;;;;;;;7.63;5.68;;;;;;;8.23;100.00;97351.44;10108612;29;20432;-75
2023/10/20 07:16:34;;;;;;;6.57;5.22;;;;;;;8.17;100.00;97334.28;10111781;29;20058;-76
2023/10/20 07:21:37;;;;;;;5.30;4.60;;;;;;;8.17;100.00;97361.88;10107519;29;20049;-75
2023/10/20 07:26:42;;;;;;;5.22;4.70;;;;;;;8.25;100.00;97358.28;10099765;29;20059;-76
2023/10/20 07:31:47;;;;;;;5.22;4.32;;;;;;;8.34;100.00;97353.69;10118750;29;20158;-77
2023/10/20 07:36:51;;;;;;;5.32;4.82;;;;;;;8.25;100.00;97346.75;10126647;29;20048;-76
2023/10/20 07:41:54;;;;;;;4.10;3.78;;;;;;;8.31;100.00;97354.88;10121986;29;20520;-76
2023/10/20 07:46:58;;;;;;;4.85;4.35;;;;;;;8.28;100.00;97349.06;10117539;29;20048;-75
2023/10/20 07:52:01;;;;;;;6.30;4.57;;;;;;;8.21;100.00;97342.81;10113308;29;20060;-76
2023/10/20 07:57:05;;;;;;;5.72;4.05;;;;;;;8.19;100.00;97324.25;10115729;29;20067;-76
2023/10/20 08:02:09;;;;;;;4.97;3.70;;;;;;;8.17;100.00;97324.47;10122719;29;20083;-76
2023/10/20 08:07:12;;;;;;;4.50;4.10;;;;;;;8.22;100.00;97337.25;10116302;29;20063;-75
2023/10/20 08:12:15;;;;;;;7.28;4.10;;;;;;;8.26;100.00;97337.75;10114640;29;20078;-75
2023/10/20 08:17:19;;;;;;;3.50;2.90;;;;;;;8.20;100.00;97351.81;10116417;29;20056;-75
2023/10/20 08:22:22;;;;;;;3.60;3.25;;;;;;;8.14;100.00;97327.47;10117154;29;20048;-76
2023/10/20 08:27:26;;;;;;;4.10;3.05;;;;;;;8.05;100.00;97328.56;10111270;29;20047;-76
2023/10/20 08:32:30;;;;;;;3.47;3.10;;;;;;;8.02;100.00;97312.09;10109477;29;20056;-76
2023/10/20 08:37:33;;;;;;;3.67;3.20;;;;;;;7.93;100.00;97300.66;10114996;29;20059;-76
2023/10/20 08:42:38;;;;;;;3.35;3.05;;;;;;;7.81;100.00;97323.47;10109050;29;20060;-76
2023/10/20 08:47:44;;;;;;;4.30;3.40;;;;;;;7.92;100.00;97323.03;10111189;29;20056;-76
2023/10/20 08:52:47;;;;;;;3.65;3.13;;;;;;;7.86;100.00;97329.09;10120556;29;20045;-77
2023/10/20 08:57:50;;;;;;;3.40;3.10;;;;;;;7.89;100.00;97315.38;10112272;29;20243;-77
2023/10/20 09:02:58;;;;;;;3.72;3.35;;;;;;;7.91;100.00;97298.16;10123773;29;20495;-77
2023/10/20 09:08:01;;;;;;;3.40;3.10;;;;;;;7.87;100.00;97298.69;10129887;29;20051;-78
2023/10/20 09:13:04;;;;;;;2.75;2.50;;;;;;;7.83;100.00;97295.56;10126931;29;21218;-78
2023/10/20 09:18:10;;;;;;;3.55;2.70;;;;;;;7.79;100.00;97294.28;10123085;29;20052;-78
2023/10/20 09:23:13;;;;;;;2.63;2.42;;;;;;;7.63;100.00;97279.22;10124246;29;20708;-77
2023/10/20 09:28:18;;;;;;;2.50;2.30;;;;;;;7.80;100.00;97300.44;10115686;29;20052;-78
2023/10/20 09:33:23;;;;;;;2.05;1.95;;;;;;;7.75;100.00;97292.13;10121378;29;20056;-78
2023/10/20 09:38:27;;;;;;;2.92;2.70;;;;;;;7.74;100.00;97285.97;10119185;29;20052;-78
2023/10/20 09:43:35;;;;;;;2.25;1.60;;;;;;;7.60;100.00;97279.59;10118057;29;20053;-78
2023/10/20 09:48:41;;;;;;;3.00;1.85;;;;;;;7.64;100.00;97277.38;10101624;29;20048;-78
2023/10/20 09:53:44;;;;;;;2.00;1.90;;;;;;;7.78;100.00;97297.13;10119853;29;21308;-77
2023/10/20 09:58:47;;;;;;;2.17;1.90;;;;;;;7.78;100.00;97305.94;10113764;29;20057;-77
2023/10/20 10:04:03;;;;;;;1.52;1.42;;;;;;;7.65;100.00;97293.25;10110897;29;20142;-77
2023/10/20 10:09:07;;;;;;;1.75;1.38;;;;;;;7.66;100.00;97297.56;10125724;29;20103;-77
2023/10/20 10:14:19;;;;;;;1.63;1.35;;;;;;;7.86;100.00;97289.84;10129271;29;20063;-77
2023/10/20 10:19:25;;;;;;;2.95;1.50;;;;;;;7.85;100.00;97295.38;10130307;29;20047;-77
2023/10/20 10:24:31;;;;;;;1.88;1.40;;;;;;;7.80;100.00;97317.31;10128457;29;20051;-76
2023/10/20 10:29:49;;;;;;;2.05;1.33;;;;;;;7.74;100.00;97310.00;10116365;29;20051;-77
2023/10/20 10:34:53;;;;;;;1.30;1.08;;;;;;;7.60;100.00;97271.56;10130738;29;20115;-77
2023/10/20 10:40:08;;;;;;;1.50;1.10;;;;;;;7.75;100.00;97309.00;10111220;29;20104;-77
2023/10/20 10:45:19;;;;;;;2.22;1.75;;;;;;;7.83;100.00;97321.44;10120974;29;20051;-77
2023/10/20 10:50:24;;;;;;;1.25;1.15;;;;;;;7.74;100.00;97318.03;10113468;29;20056;-76
2023/10/20 10:55:28;;;;;;;2.45;1.63;;;;;;;7.83;100.00;97294.72;10114127;29;20058;-76
2023/10/20 11:00:31;;;;;;;2.05;1.30;;;;;;;7.69;100.00;97281.16;10119528;29;20059;-77
2023/10/20 11:05:36;;;;;;;1.88;1.40;;;;;;;7.90;100.00;97269.78;10115002;29;20127;-77
2023/10/20 11:10:43;;;;;;;2.83;1.58;;;;;;;7.91;100.00;97254.56;10101894;29;20071;-77
2023/10/20 11:15:46;;;;;;;2.28;1.40;;;;;;;7.88;100.00;97214.84;10110862;29;20052;-77
2023/10/20 11:20:50;;;;;;;3.03;1.20;;;;;;;7.92;100.00;97192.06;10121281;29;20056;-77
2023/10/20 11:25:53;;;;;;;2.00;1.45;;;;;;;7.90;100.00;97186.94;10125626;29;20068;-76
2023/10/20 11:30:57;;;;;;;1.52;1.42;;;;;;;8.14;100.00;97195.66;10122568;29;21169;-76
2023/10/20 11:36:03;;;;;;;1.55;1.38;;;;;;;8.16;100.00;97161.56;10125905;29;20061;-76
2023/10/20 11:41:07;;;;;;;1.58;1.42;;;;;;;7.92;100.00;97160.84;10130646;29;20068;-76
2023/10/20 11:46:11;;;;;;;1.70;1.60;;;;;;;7.87;100.00;97149.06;10121484;29;20092;-76
2023/10/20 11:51:15;;;;;;;2.03;1.83;;;;;;;7.90;100.00;97130.00;10132516;29;20055;-76
2023/10/20 11:56:19;;;;;;;1.90;1.45;;;;;;;7.68;100.00;97126.44;10111146;29;20649;-76
2023/10/20 12:01:22;;;;;;;2.08;1.90;;;;;;;7.81;100.00;97120.41;10114055;29;20068;-76
2023/10/20 12:06:26;;;;;;;1.70;1.60;;;;;;;7.98;100.00;97135.25;10116837;29;20048;-76
2023/10/20 12:11:29;;;;;;;1.75;1.65;;;;;;;7.98;100.00;97140.59;10115301;29;20128;-75
2023/10/20 12:16:32;;;;;;;2.35;2.00;;;;;;;8.06;100.00;97137.78;10110187;29;20052;-75
2023/10/20 12:21:36;;;;;;;2.38;1.80;;;;;;;7.78;100.00;97124.28;10103575;29;20147;-76
2023/10/20 12:26:39;;;;;;;2.78;1.90;;;;;;;7.80;100.00;97111.56;10103298;29;20055;-76
2023/10/20 12:31:42;;;;;;;2.47;2.00;;;;;;;7.72;100.00;97090.31;10110237;29;20056;-76
2023/10/20 12:36:48;;;;;;;2.92;1.70;;;;;;;7.68;100.00;97079.16;10110938;29;20054;-76
2023/10/20 12:41:51;;;;;;;3.22;2.13;;;;;;;7.90;100.00;97084.56;10112607;29;20464;-77
2023/10/20 12:46:54;;;;;;;1.85;1.65;;;;;;;7.75;100.00;97068.56;10113215;29;20059;-76
2023/10/20 12:51:58;;;;;;;2.95;2.38;;;;;;;7.69;100.00;97094.16;10114934;29;20053;-77
2023/10/20 12:57:03;;;;;;;1.90;1.80;;;;;;;7.57;100.00;97073.44;10115650;29;20530;-77
2023/10/20 13:02:06;;;;;;;2.00;1.90;;;;;;;7.44;100.00;97048.25;10115869;29;20064;-76
2023/10/20 13:07:11;;;;;;;2.20;2.00;;;;;;;7.36;100.00;97060.88;10115921;29;20087;-77
2023/10/20 13:12:16;;;;;;;2.20;2.10;;;;;;;7.56;100.00;97080.63;10115718;29;20510;-77
2023/10/20 13:17:19;;;;;;;5.80;2.97;;;;;;;7.53;100.00;97085.53;10103033;29;20385;-77
2023/10/20 13:22:24;;;;;;;2.88;2.67;;;;;;;7.40;100.00;97103.00;10123477;29;20064;-77
2023/10/20 13:27:27;;;;;;;2.97;2.72;;;;;;;7.42;100.00;97143.72;10110326;29;20048;-77
2023/10/20 13:32:30;;;;;;;2.25;2.05;;;;;;;7.57;100.00;97127.72;10117306;29;20052;-77
2023/10/20 13:37:35;;;;;;;2.50;2.30;;;;;;;7.59;100.00;97139.03;10103977;29;20053;-77
2023/10/20 13:42:39;;;;;;;7.30;3.85;;;;;;;7.64;100.00;97173.19;10117411;29;20063;-77
2023/10/20 13:47:42;;;;;;;3.90;2.45;;;;;;;7.52;100.00;97172.00;10108597;29;20052;-77
2023/10/20 13:52:47;;;;;;;3.30;2.75;;;;;;;7.37;100.00;97166.63;10123827;29;20075;-77
2023/10/20 13:57:50;;;;;;;2.90;2.70;;;;;;;7.44;100.00;97146.22;10116939;29;20055;-77
2023/10/20 14:02:53;;;;;;;4.93;4.05;;;;;;;7.58;100.00;97129.38;10114350;29;20052;-77
2023/10/20 14:07:58;;;;;;;4.40;3.78;;;;;;;7.45;100.00;97119.31;10116091;29;20129;-76
2023/10/20 14:13:01;;;;;;;3.88;3.50;;;;;;;7.29;100.00;97122.16;10114014;29;20044;-76
2023/10/20 14:18:04;;;;;;;4.65;3.70;;;;;;;7.28;100.00;97121.34;10110160;29;20059;-76
2023/10/20 14:23:08;;;;;;;4.88;3.45;;;;;;;7.27;100.00;97118.88;10103515;29;20209;-76
2023/10/20 14:28:11;;;;;;;4.15;3.58;;;;;;;7.57;100.00;97105.50;10097307;29;20064;-75
2023/10/20 14:33:14;;;;;;;3.83;3.45;;;;;;;7.54;100.00;97079.16;10103761;29;20456;-76
2023/10/20 14:38:18;;;;;;;4.70;4.18;;;;;;;7.39;100.00;97063.16;10111580;29;20380;-75
2023/10/20 14:43:21;;;;;;;5.53;5.03;;;;;;;7.41;100.00;97063.81;10108717;29;20044;-76
2023/10/20 14:48:24;;;;;;;5.38;4.78;;;;;;;7.35;100.00;97069.88;10113166;29;20061;-76
2023/10/20 14:53:28;;;;;;;6.38;5.45;;;;;;;7.46;100.00;97070.25;10112597;29;20535;-76
2023/10/20 14:58:31;;;;;;;7.65;6.55;;;;;;;7.63;100.00;97075.41;10111247;29;20063;-76
2023/10/20 15:03:34;;;;;;;9.75;5.70;;;;;;;7.80;100.00;97076.03;10115864;29;20059;-76
2023/10/20 15:08:39;;;;;;;7.70;6.00;;;;;;;7.59;100.00;97063.41;10093211;29;20177;-76
2023/10/20 15:13:43;;;;;;;6.18;5.50;;;;;;;7.63;100.00;97054.03;10108607;29;20133;-76
2023/10/20 15:18:46;;;;;;;7.30;5.95;;;;;;;7.52;100.00;97047.31;10121383;29;20052;-77
2023/10/20 15:23:50;;;;;;;6.63;5.45;;;;;;;7.64;100.00;97045.81;10122103;29;20060;-77
2023/10/20 15:28:53;;;;;;;5.53;5.03;;;;;;;7.77;100.00;97045.16;10117661;29;20052;-78
2023/10/20 15:33:56;;;;;;;4.88;4.35;;;;;;;7.79;100.00;97052.97;10120747;29;20173;-76
2023/10/20 15:39:01;;;;;;;6.43;4.60;;;;;;;7.65;100.00;97030.63;10120199;29;20575;-76
2023/10/20 15:44:04;;;;;;;6.45;5.10;;;;;;;7.69;100.00;97040.75;10102373;29;21436;-76
2023/10/20 15:49:07;;;;;;;9.52;7.30;;;;;;;7.59;100.00;97037.53;10111023;29;21213;-76
2023/10/20 15:54:11;;;;;;;12.93;9.35;;;;;;;7.74;100.00;97016.16;10112198;29;20051;-76
2023/10/20 15:59:23;;;;;;;15.15;9.77;;;;;;;7.57;100.00;97014.69;10115349;29;20099;-76
2023/10/20 16:04:27;;;;;;;17.52;12.10;;;;;;;7.82;100.00;97053.44;10115011;29;20047;-76
2023/10/20 16:09:32;;;;;;;18.77;11.40;;;;;;;7.78;100.00;97060.16;10106094;29;20396;-77
2023/10/20 16:14:35;;;;;;;30.20;16.55;;;;;;;7.75;100.00;97070.41;10140984;29;20055;-77
2023/10/20 16:19:39;;;;;;;14.25;10.77;;;;;;;8.01;100.00;97088.56;10139168;29;20048;-78
2023/10/20 16:24:44;;;;;;;13.02;10.00;;;;;;;7.92;100.00;97085.19;10135242;29;20052;-78
2023/10/20 16:29:47;;;;;;;12.23;9.27;;;;;;;7.73;100.00;97068.75;10133670;29;20083;-76
2023/10/20 16:34:50;;;;;;;14.45;10.52;;;;;;;7.92;100.00;97093.22;10120787;29;20051;-78
2023/10/20 16:39:54;;;;;;;14.52;10.65;;;;;;;8.05;100.00;97073.84;10123969;29;20048;-77
2023/10/20 16:44:57;;;;;;;17.38;12.90;;;;;;;8.06;100.00;97078.97;10121924;29;20063;-77
2023/10/20 16:50:01;;;;;;;20.23;12.75;;;;;;;8.28;100.00;97068.31;10125230;29;20093;-77
2023/10/20 16:55:06;;;;;;;23.00;14.30;;;;;;;8.36;100.00;97066.38;10131075;29;20056;-78
2023/10/20 17:00:10;;;;;;;24.13;14.57;;;;;;;8.52;100.00;97094.69;10123994;29;20052;-78
2023/10/20 17:05:13;;;;;;;19.08;13.77;;;;;;;8.70;100.00;97107.66;10123604;29;20159;-77
2023/10/20 17:10:18;;;;;;;22.50;14.63;;;;;;;8.78;100.00;97128.09;10112442;29;20464;-77
2023/10/20 17:15:20;;;;;;;25.98;16.23;;;;;;;8.73;100.00;97133.19;10119033;29;20130;-76
2023/10/20 17:20:23;;;;;;;24.17;14.77;;;;;;;8.52;100.00;97150.06;10124275;29;20054;-76
2023/10/20 17:25:28;;;;;;;25.90;16.15;;;;;;;8.86;100.00;97173.47;10131552;29;20056;-77
2023/10/20 17:30:30;;;;;;;24.10;15.77;;;;;;;9.02;100.00;97175.88;10129224;29;20056;-77
2023/10/20 17:35:33;;;;;;;26.20;17.58;;;;;;;8.93;100.00;97177.00;10125612;29;20164;-77
2023/10/20 17:40:37;;;;;;;29.52;17.17;;;;;;;8.92;100.00;97182.56;10114379;29;20495;-77
2023/10/20 17:45:41;;;;;;;29.92;19.25;;;;;;;9.11;100.00;97173.88;10126521;29;20528;-76
2023/10/20 17:50:43;;;;;;;27.00;18.20;;;;;;;9.15;100.00;97177.81;10126874;29;20036;-76
2023/10/20 17:55:48;;;;;;;29.35;19.10;;;;;;;9.28;100.00;97185.13;10128535;29;20052;-77
2023/10/20 18:00:51;;;;;;;27.55;18.05;;;;;;;9.28;100.00;97183.28;10128961;29;20143;-77
2023/10/20 18:05:54;;;;;;;22.90;16.77;;;;;;;9.35;100.00;97182.50;10128710;29;20091;-76
2023/10/20 18:11:03;;;;;;;26.02;17.42;;;;;;;9.46;100.00;97190.84;10126138;29;20148;-77
2023/10/20 18:16:08;;;;;;;29.25;18.63;;;;;;;9.50;100.00;97202.81;10125089;29;20501;-77
2023/10/20 18:21:11;;;;;;;24.75;18.13;;;;;;;9.53;100.00;97208.81;10120587;29;20131;-77
2023/10/20 18:26:16;;;;;;;25.40;18.13;;;;;;;9.67;100.00;97213.25;10116548;29;20508;-77
2023/10/20 18:31:20;;;;;;;24.42;17.50;;;;;;;9.84;100.00;97213.75;10122990;29;20048;-78
2023/10/20 18:36:23;;;;;;;23.00;14.93;;;;;;;9.97;100.00;97218.41;10123493;29;20138;-77
2023/10/20 18:41:27;;;;;;;22.50;16.25;;;;;;;10.09;100.00;97217.69;10110589;29;20051;-77
2023/10/20 18:46:30;;;;;;;23.30;14.63;;;;;;;10.06;100.00;97233.31;10117711;29;20059;-78
2023/10/20 18:51:33;;;;;;;20.73;14.68;;;;;;;10.01;100.00;97235.75;10133559;29;20044;-77
2023/10/20 18:56:38;;;;;;;20.08;14.27;;;;;;;10.13;100.00;97240.38;10132354;29;20111;-77
2023/10/20 19:01:41;;;;;;;22.02;14.32;;;;;;;10.22;100.00;97249.06;10130045;29;20043;-77
2023/10/20 19:06:43;;;;;;;19.60;14.65;;;;;;;10.22;100.00;97246.41;10108537;29;20048;-77
2023/10/20 19:11:48;;;;;;;22.50;14.80;;;;;;;10.21;100.00;97258.16;10123874;29;20515;-76
2023/10/20 19:16:51;;;;;;;18.17;14.23;;;;;;;10.21;100.00;97271.56;10123120;29;20066;-78
2023/10/20 19:21:54;;;;;;;19.27;14.48;;;;;;;10.26;100.00;97271.81;10131683;29;20055;-77
2023/10/20 19:26:58;;;;;;;21.70;14.30;;;;;;;10.34;100.00;97279.69;10129298;29;20053;-77
2023/10/20 19:32:02;;;;;;;17.23;12.93;;;;;;;10.35;100.00;97281.34;10128071;29;20064;-77
2023/10/20 19:37:06;;;;;;;19.48;13.05;;;;;;;10.38;100.00;97289.00;10133661;29;20052;-77
2023/10/20 19:42:10;;;;;;;19.85;13.25;;;;;;;10.39;100.00;97287.97;10119163;29;20100;-78
2023/10/20 19:47:13;;;;;;;17.80;12.50;;;;;;;10.32;100.00;97305.06;10122797;29;20424;-77
2023/10/20 19:52:16;;;;;;;21.73;15.43;;;;;;;10.09;100.00;97308.84;10124989;29;20052;-77
2023/10/20 19:57:20;;;;;;;19.92;14.85;;;;;;;9.87;100.00;97310.75;10122247;29;20056;-78
2023/10/20 20:02:23;;;;;;;18.17;13.80;;;;;;;9.78;100.00;97305.69;10103834;29;20044;-79
2023/10/20 20:07:27;;;;;;;18.20;14.00;;;;;;;9.71;100.00;97311.81;10138868;29;20044;-78
2023/10/20 20:12:31;;;;;;;22.33;15.95;;;;;;;9.61;100.00;97324.72;10131207;29;21586;-78
2023/10/20 20:17:34;;;;;;;38.70;30.20;;;;;;;9.53;100.00;97326.69;10129728;29;20052;-78
2023/10/20 20:22:37;;;;;;;32.80;26.08;;;;;;;9.46;100.00;97334.66;10133466;29;20683;-77
2023/10/20 20:27:42;;;;;;;28.85;19.65;;;;;;;9.40;100.00;97330.06;10133266;29;20104;-78
2023/10/20 20:32:45;;;;;;;27.40;17.85;;;;;;;9.34;100.00;97346.91;10133345;29;20048;-77
2023/10/20 20:37:48;;;;;;;26.67;17.88;;;;;;;9.25;100.00;97347.03;10135330;29;20051;-77
2023/10/20 20:42:52;;;;;;;25.98;18.15;;;;;;;9.23;100.00;97367.00;10131788;29;20159;-78
2023/10/20 20:47:55;;;;;;;30.50;19.65;;;;;;;9.22;100.00;97373.38;10115359;29;20681;-78
2023/10/20 20:52:59;;;;;;;29.63;19.13;;;;;;;9.19;100.00;97374.56;10134413;29;20056;-79
2023/10/20 20:58:04;;;;;;;27.13;18.23;;;;;;;9.05;100.00;97396.84;10135711;29;20048;-79
2023/10/20 21:03:07;;;;;;;31.23;19.15;;;;;;;9.05;100.00;97392.34;10140286;29;20614;-77
2023/10/20 21:08:10;;;;;;;28.58;19.20;;;;;;;8.97;100.00;97396.97;10142037;29;20212;-77
2023/10/20 21:13:14;;;;;;;29.75;19.52;;;;;;;9.00;100.00;97400.09;10131433;29;20229;-77
2023/10/20 21:18:17;;;;;;;30.02;19.35;;;;;;;8.99;100.00;97395.75;10119102;29;20421;-76
2023/10/20 21:23:20;;;;;;;30.75;18.55;;;;;;;8.97;100.00;97400.47;10135780;29;20055;-78
2023/10/20 21:28:24;;;;;;;29.75;17.42;;;;;;;9.00;100.00;97405.44;10140837;29;20048;-78
2023/10/20 21:33:27;;;;;;;26.25;17.25;;;;;;;8.97;100.00;97405.00;10139178;29;20044;-78
2023/10/20 21:38:30;;;;;;;24.40;16.40;;;;;;;8.93;100.00;97409.06;10136080;29;20520;-78
2023/10/20 21:43:35;;;;;;;26.25;17.88;;;;;;;8.90;100.00;97410.25;10134921;29;20064;-77
2023/10/20 21:48:38;;;;;;;30.83;19.80;;;;;;;8.97;100.00;97421.88;10125789;29;20071;-77
2023/10/20 21:53:41;;;;;;;29.48;19.75;;;;;;;8.98;100.00;97433.41;10112801;29;20527;-77
2023/10/20 21:58:46;;;;;;;34.53;18.58;;;;;;;8.98;100.00;97436.91;10121372;29;20048;-79
2023/10/20 22:03:49;;;;;;;33.00;20.10;;;;;;;8.89;100.00;97443.41;10121316;29;20052;-77
2023/10/20 22:08:53;;;;;;;38.30;21.30;;;;;;;8.94;100.00;97457.06;10117841;29;20060;-77
2023/10/20 22:13:57;;;;;;;30.40;20.05;;;;;;;8.92;100.00;97463.63;10110824;29;20047;-77
2023/10/20 22:19:00;;;;;;;36.15;20.75;;;;;;;8.90;100.00;97463.78;10112167;29;20049;-77
2023/10/20 22:24:04;;;;;;;42.42;23.25;;;;;;;8.91;100.00;97475.31;10117116;29;20059;-78
2023/10/20 22:29:08;;;;;;;30.95;20.17;;;;;;;9.01;100.00;97475.88;10116269;29;20055;-77
2023/10/20 22:34:11;;;;;;;43.05;27.27;;;;;;;9.07;100.00;97485.84;10117156;29;20047;-77
2023/10/20 22:39:14;;;;;;;58.38;33.20;;;;;;;9.11;100.00;97486.31;10120623;29;20048;-77
2023/10/20 22:44:19;;;;;;;72.22;38.35;;;;;;;9.12;100.00;97487.97;10124727;29;20056;-77
2023/10/20 22:49:22;;;;;;;39.80;23.15;;;;;;;9.11;100.00;97481.78;10129573;29;20058;-77
2023/10/20 22:54:25;;;;;;;36.15;21.60;;;;;;;9.11;100.00;97500.53;10107638;29;20055;-78
2023/10/20 22:59:30;;;;;;;31.63;20.10;;;;;;;9.09;100.00;97504.41;10124118;29;20896;-77
2023/10/20 23:04:33;;;;;;;35.00;21.85;;;;;;;9.15;100.00;97504.50;10127362;29;20052;-77
2023/10/20 23:09:36;;;;;;;32.58;20.63;;;;;;;9.12;100.00;97504.88;10107023;29;20041;-77
2023/10/20 23:14:40;;;;;;;35.30;21.88;;;;;;;9.16;100.00;97508.84;10125548;29;20139;-77
2023/10/20 23:19:43;;;;;;;35.50;21.40;;;;;;;9.20;100.00;97510.13;10116084;29;20052;-76
2023/10/20 23:24:46;;;;;;;35.63;21.20;;;;;;;9.25;100.00;97504.22;10116052;29;20096;-77
2023/10/20 23:29:51;;;;;;;40.88;21.00;;;;;;;9.30;100.00;97507.19;10117835;29;20044;-77
2023/10/20 23:34:54;;;;;;;32.25;19.58;;;;;;;9.32;100.00;97515.00;10105086;29;20063;-78